Latest Weather Observations for Mount Gambier

IDS60801

Issued at 5:31 pm CST Thursday 2 July 2015 (issued every 30 minutes, with the page automatically refreshed every 10 minutes)

About weather observations | Map of weather stations | Latest weather observations for SA | Other Formats
Station Details ID: 026021 Name: MOUNT GAMBIER AERO Lat: -37.75 Lon: 140.77 Height: 63.0 m
Data from the previous 72 hours. | See also: Recent months at Mount Gambier
Date/Time
CST
Temp
°C
App
Temp
°C
Dew
Point
Rel
Hum
%
Delta-T
°C
Wind Press
QNH
hPa
Press
MSL
hPa
Rain
since 9 am
mm
Dir
 
Spd
km/h
Gust
km/h
Spd
kts
Gust
kts
02/05:30pm 6.6 5.2 3.8 82 1.2 CALM 0 0 0 0 1029.3 1029.4 0.0
02/05:00pm 7.7 5.2 4.0 77 1.6 WSW 6 9 3 5 1029.0 1029.1 0.0
02/04:30pm 8.6 5.5 3.7 71 2.1 WNW 9 11 5 6 1028.7 1028.8 0.0
02/04:00pm 9.4 5.8 3.1 65 2.7 S 11 15 6 8 1028.5 1028.6 0.0
02/03:30pm 9.9 5.8 4.2 67 2.5 S 15 24 8 13 1028.4 1028.5 0.0
02/03:00pm 10.5 6.2 3.1 60 3.2 S 15 22 8 12 1028.1 1028.2 0.0
02/02:30pm 11.7 7.5 1.5 49 4.3 SW 13 17 7 9 1027.9 1028.0 0.0
02/02:00pm 12.1 7.3 0.2 44 4.9 SSW 15 19 8 10 1027.7 1027.8 0.0
02/01:30pm 12.0 5.8 -0.3 42 5.0 SSW 22 30 12 16 1027.6 1027.7 0.0
02/01:00pm 11.8 4.6 1.0 47 4.5 SSW 28 33 15 18 1027.4 1027.5 0.0
02/12:30pm 11.3 5.8 3.9 60 3.3 SSW 22 28 12 15 1027.5 1027.6 0.0
02/12:00pm 10.8 3.6 2.9 58 3.4 S 30 37 16 20 1027.3 1027.4 0.0
02/11:30am 11.6 4.7 0.4 46 4.6 SSW 26 33 14 18 1027.2 1027.3 0.0
02/11:00am 11.5 3.6 1.2 49 4.3 SSW 32 43 17 23 1027.2 1027.3 0.0
02/10:30am 11.3 5.1 4.4 62 3.1 SSW 26 35 14 19 1026.9 1027.0 0.0
02/10:00am 11.0 4.0 4.0 62 3.1 SW 30 37 16 20 1026.5 1026.6 0.0
02/09:30am 10.3 5.8 6.0 75 2.0 SSW 19 30 10 16 1026.3 1026.4 0.0
02/09:00am 9.2 4.5 5.9 80 1.5 SSW 20 28 11 15 1026.2 1026.3 1.6
02/08:30am 9.5 2.2 4.5 71 2.2 SW 32 46 17 25 1025.8 1026.0 1.6
02/08:00am 9.4 3.9 2.0 60 3.1 SW 20 30 11 16 1025.2 1025.4 1.6
02/07:30am 9.4 2.5 2.8 63 2.8 SW 28 37 15 20 1025.0 1025.2 1.6
02/07:00am 9.6 4.3 1.7 58 3.3 WSW 19 26 10 14 1024.3 1024.5 1.6
02/06:30am 10.0 4.4 3.3 63 2.9 WSW 22 33 12 18 1023.9 1024.1 1.6
02/05:30am 9.8 4.6 3.6 65 2.7 WSW 20 28 11 15 1023.1 1023.3 1.6
02/05:00am 10.5 5.0 3.9 63 2.9 WSW 22 28 12 15 1022.7 1022.9 1.6
02/04:30am 10.4 5.6 5.4 71 2.3 SW 20 28 11 15 1022.4 1022.6 1.6
02/04:00am 9.9 5.5 4.5 69 2.4 W 17 24 9 13 1022.3 1022.5 1.6
02/03:30am 9.7 5.2 4.3 69 2.4 W 17 26 9 14 1022.3 1022.5 1.6
02/03:00am 9.9 5.2 5.3 73 2.1 WSW 19 26 10 14 1022.4 1022.6 1.6
02/02:30am 10.7 6.0 6.0 73 2.2 WSW 20 28 11 15 1022.2 1022.4 1.6
02/02:00am 10.9 6.5 7.3 78 1.7 WSW 20 28 11 15 1022.0 1022.2 1.6
02/01:30am 11.1 7.2 8.5 84 1.3 WSW 19 26 10 14 1021.8 1022.0 1.6
02/01:00am 11.0 8.5 9.6 91 0.7 W 13 24 7 13 1021.7 1021.9 1.6
02/12:30am 10.6 7.6 9.4 92 0.6 W 15 19 8 10 1021.6 1021.7 1.4
02/12:00am 10.9 7.6 9.5 91 0.7 WNW 17 22 9 12 1021.7 1021.9 1.4
 
Date/Time
CST
Temp
°C
App
Temp
°C
Dew
Point
Rel
Hum
%
Delta-T
°C
Wind Press
QNH
hPa
Press
MSL
hPa
Rain
since 9 am
mm
Dir
 
Spd
km/h
Gust
km/h
Spd
kts
Gust
kts
01/11:30pm 11.3 6.6 9.3 87 1.0 W 24 33 13 18 1021.8 1022.0 1.4
01/11:23pm 11.2 6.2 9.4 89 0.9 W 26 33 14 18 1021.8 1022.0 1.4
01/11:04pm 11.8 5.9 9.2 84 1.3 W 30 39 16 21 1021.8 1022.0 0.6
01/11:00pm 12.6 6.9 9.9 83 1.4 WNW 30 39 16 21 1021.6 1021.7 0.4
01/10:30pm 12.4 8.9 10.3 87 1.1 NW 19 28 10 15 1021.3 1021.4 0.2
01/10:00pm 11.6 8.5 10.2 91 0.7 NNW 17 20 9 11 1021.5 1021.6 0.2
01/09:30pm 11.2 8.5 10.2 94 0.5 NNW 15 19 8 10 1021.9 1022.1 0.2
01/09:00pm 11.2 8.1 10.2 94 0.5 NNW 17 22 9 12 1022.3 1022.5 0.2
01/08:30pm 11.0 7.3 10.0 93 0.5 NNW 20 30 11 16 1022.3 1022.5 0.2
01/08:00pm 11.0 6.9 10.0 93 0.5 NNW 22 28 12 15 1022.4 1022.6 0.2
01/07:30pm 11.0 7.3 10.0 93 0.5 NNW 20 30 11 16 1022.3 1022.5 0.2
01/07:00pm 10.9 6.8 10.1 95 0.4 NNW 22 30 12 16 1022.2 1022.4 0.2
01/06:30pm 10.9 7.2 10.1 95 0.4 NNW 20 26 11 14 1022.2 1022.4 0.2
01/06:00pm 11.1 7.6 10.3 95 0.4 NNW 19 26 10 14 1022.2 1022.4 0.2
01/05:30pm 11.5 7.8 10.1 91 0.7 NW 20 28 11 15 1022.4 1022.6 0.2
01/05:00pm 11.7 7.3 10.3 91 0.7 NW 24 33 13 18 1022.3 1022.5 0.2
01/04:30pm 11.8 8.1 10.2 90 0.8 NW 20 28 11 15 1022.4 1022.6 0.2
01/04:00pm 12.3 7.5 10.2 87 1.1 NW 26 35 14 19 1022.4 1022.6 0.2
01/03:30pm 12.3 7.6 10.6 89 0.9 NW 26 33 14 18 1022.7 1022.9 0.2
01/03:16pm 11.9 7.9 10.5 91 0.7 NW 22 35 12 19 1022.7 1022.9 0.2
01/03:00pm 12.1 7.6 10.1 87 1.0 NW 24 33 13 18 1022.8 1023.0 0.0
01/02:30pm 12.4 8.0 10.5 88 1.0 NNW 24 33 13 18 1023.0 1023.2 0.0
01/02:00pm 12.7 8.1 9.8 82 1.5 NW 24 35 13 19 1023.2 1023.4 0.0
01/01:30pm 12.8 6.9 9.2 79 1.8 NW 30 39 16 21 1023.5 1023.7 0.0
01/01:00pm 13.0 8.3 10.5 85 1.3 NNW 26 35 14 19 1023.9 1024.1 0.0
01/12:30pm 12.3 7.1 10.4 88 1.0 NNW 28 37 15 20 1024.6 1024.8 0.0
01/12:17pm 12.6 7.7 9.9 83 1.4 NNW 26 33 14 18 1024.7 1024.9 0.0
01/12:00pm 12.4 9.3 10.3 87 1.1 N 17 26 9 14 1025.0 1025.2 0.0
01/11:30am 11.8 8.2 10.0 89 0.9 N 19 26 10 14 1025.3 1025.5 0.0
01/11:00am 10.9 7.0 9.3 90 0.8 NNW 20 28 11 15 1026.1 1026.2 0.0
01/10:53am 11.2 7.3 9.6 90 0.8 NNW 20 30 11 16 1026.3 1026.4 0.0
01/10:30am 9.6 5.6 9.0 96 0.3 NNW 20 28 11 15 1026.5 1026.6 0.0
01/10:00am 8.8 4.8 8.4 97 0.2 NNW 19 28 10 15 1026.7 1026.8 0.0
01/09:30am 7.9 3.7 7.5 97 0.2 NNW 19 32 10 17 1026.7 1026.8 0.0
01/09:00am 8.0 4.2 7.4 96 0.3 NNW 17 26 9 14 1026.9 1027.0 0.2
01/08:30am 7.6 3.7 6.9 95 0.3 NNW 17 26 9 14 1027.0 1027.1 0.2
01/08:00am 7.7 3.8 7.3 97 0.2 N 17 26 9 14 1027.0 1027.1 0.2
01/07:30am 7.4 3.9 7.0 97 0.2 N 15 22 8 12 1027.1 1027.2 0.2
01/07:00am 7.3 3.7 6.9 97 0.2 N 15 30 8 16 1027.0 1027.1 0.2
01/06:30am 6.5 2.4 6.3 99 0.1 N 17 20 9 11 1026.9 1027.0 0.2
01/06:00am 6.2 1.6 5.7 97 0.2 N 19 28 10 15 1026.9 1027.0 0.2
01/05:30am 6.2 2.1 6.0 99 0.1 NNW 17 22 9 12 1027.2 1027.3 0.2
01/05:00am 5.9 2.1 5.7 99 0.1 NNW 15 26 8 14 1027.0 1027.1 0.2
01/04:30am 6.1 1.9 5.6 97 0.2 NNW 17 24 9 13 1027.1 1027.2 0.2
01/04:00am 5.7 1.0 5.2 97 0.2 N 19 26 10 14 1027.2 1027.3 0.2
01/03:30am 6.0 1.8 5.8 99 0.1 NNW 17 20 9 11 1027.6 1027.7 0.2
01/03:00am 6.4 1.9 6.0 97 0.2 N 19 26 10 14 1027.6 1027.7 0.2
01/02:30am 6.8 2.7 6.4 97 0.2 N 17 24 9 13 1027.6 1027.7 0.2
01/02:00am 7.1 2.5 6.7 97 0.2 NNW 20 28 11 15 1027.8 1027.9 0.2
01/01:30am 6.7 2.2 6.3 97 0.2 N 19 24 10 13 1027.7 1027.8 0.0
01/01:00am 6.2 1.6 5.7 97 0.2 NNW 19 24 10 13 1028.0 1028.1 0.0
01/12:30am 6.4 1.9 6.2 99 0.1 NNW 19 24 10 13 1028.3 1028.4 0.0
01/12:00am 6.6 2.5 6.4 99 0.1 NNW 17 20 9 11 1028.5 1028.6 0.0
 
Date/Time
CST
Temp
°C
App
Temp
°C
Dew
Point
Rel
Hum
%
Delta-T
°C
Wind Press
QNH
hPa
Press
MSL
hPa
Rain
since 9 am
mm
Dir
 
Spd
km/h
Gust
km/h
Spd
kts
Gust
kts
30/11:30pm 7.0 3.3 6.3 95 0.3 NNW 15 19 8 10 1028.7 1028.8 0.0
30/11:00pm 6.4 3.4 6.0 97 0.2 NNW 11 13 6 7 1028.8 1028.9 0.0
30/10:30pm 7.0 4.5 6.6 97 0.2 N 9 13 5 7 1029.0 1029.1 0.0
30/10:00pm 8.4 6.2 7.8 96 0.3 N 9 13 5 7 1029.1 1029.2 0.0
30/09:30pm 8.7 6.6 8.1 96 0.3 NNE 9 9 5 5 1029.2 1029.3 0.0
30/09:04pm 9.1 6.6 8.1 93 0.5 WNW 11 13 6 7 1029.3 1029.4 0.0
30/09:00pm 9.2 6.7 8.2 93 0.5 W 11 13 6 7 1029.4 1029.5 0.0
30/08:45pm 9.2 5.9 7.9 92 0.6 W 15 19 8 10 1029.4 1029.5 0.0
30/08:30pm 9.2 6.4 7.1 87 1.0 NW 11 13 6 7 1029.4 1029.5 0.0
30/08:00pm 9.1 7.1 7.2 88 0.9 NNW 7 7 4 4 1029.3 1029.4 0.0
30/07:30pm 9.0 7.2 7.3 89 0.8 N 6 7 3 4 1029.0 1029.1 0.0
30/07:00pm 9.8 7.8 7.0 83 1.3 W 7 9 4 5 1029.0 1029.1 0.0
30/06:30pm 9.7 7.7 7.1 84 1.2 WSW 7 13 4 7 1028.7 1028.8 0.0
30/06:00pm 9.3 8.7 7.6 89 0.8 CALM 0 0 0 0 1028.5 1028.6 0.0
30/05:30pm 9.2 8.6 7.5 89 0.8 CALM 0 6 0 3 1028.3 1028.4 0.0
30/05:00pm 9.2 8.1 7.1 87 1.0 NW 2 7 1 4 1028.2 1028.3 0.0
30/04:30pm 11.7 11.1 7.6 76 2.0 CALM 0 4 0 2 1028.3 1028.4 0.0
30/04:00pm 12.6 10.1 6.7 67 2.8 NW 9 11 5 6 1028.2 1028.3 0.0
30/03:30pm 12.6 9.3 6.2 65 3.0 W 13 19 7 10 1028.0 1028.1 0.0
30/03:00pm 13.5 9.7 5.6 59 3.7 SW 15 19 8 10 1028.0 1028.1 0.0
30/02:30pm 12.8 9.6 6.7 66 2.9 SW 13 17 7 9 1027.9 1028.0 0.0
30/02:00pm 13.1 10.4 5.4 59 3.6 WSW 9 13 5 7 1027.9 1028.0 0.0
30/01:30pm 12.5 8.1 4.6 58 3.6 W 17 20 9 11 1028.1 1028.2 0.0
30/01:00pm 12.7 8.9 5.9 63 3.2 W 15 22 8 12 1028.4 1028.5 0.0
30/12:30pm 13.0 9.9 7.4 69 2.7 NW 13 17 7 9 1028.6 1028.7 0.0
30/12:00pm 13.8 11.1 7.2 64 3.2 NW 11 15 6 8 1029.0 1029.1 0.0
30/11:30am 12.3 8.8 7.1 70 2.5 NNW 15 19 8 10 1029.4 1029.5 0.0
30/11:00am 10.7 6.7 6.6 76 1.9 NNW 17 22 9 12 1029.8 1029.9 0.0
30/10:30am 10.4 7.1 6.3 76 1.9 NNW 13 17 7 9 1030.0 1030.1 0.0
30/10:00am 9.5 5.7 6.0 79 1.6 NNW 15 19 8 10 1030.1 1030.2 0.0
30/09:30am 8.8 5.4 5.9 82 1.3 NW 13 17 7 9 1029.9 1030.0 0.0
30/09:00am 8.3 6.0 5.6 83 1.2 N 7 11 4 6 1029.8 1029.9 0.0
30/08:30am 7.7 5.4 5.7 87 0.9 N 7 11 4 6 1029.6 1029.7 0.0
30/08:00am 7.6 5.3 5.6 87 0.9 N 7 9 4 5 1029.5 1029.6 0.0
30/07:30am 7.5 5.2 5.5 87 0.9 NNW 7 9 4 5 1029.5 1029.6 0.0
30/07:00am 7.6 5.3 5.6 87 0.9 NW 7 9 4 5 1029.3 1029.4 0.0
30/06:30am 7.7 4.1 5.2 84 1.1 W 13 17 7 9 1029.2 1029.3 0.0
30/06:00am 8.0 3.2 4.8 80 1.4 NNW 19 24 10 13 1028.7 1028.8 0.0
30/05:30am 8.0 3.6 4.8 80 1.4 NNW 17 22 9 12 1028.6 1028.7 0.0
30/05:00am 7.9 3.9 4.9 81 1.3 NNW 15 19 8 10 1028.4 1028.5 0.0
30/04:30am 7.8 3.8 4.8 81 1.3 NNW 15 17 8 9 1028.5 1028.6 0.0
30/04:00am 7.8 3.8 5.1 83 1.2 NNW 15 17 8 9 1028.5 1028.6 0.0
30/03:30am 7.7 4.1 5.2 84 1.1 NNW 13 17 7 9 1028.7 1028.8 0.0
30/03:00am 7.7 4.6 5.5 86 1.0 NW 11 15 6 8 1028.9 1029.0 0.0
30/02:30am 7.8 5.1 5.6 86 1.0 NW 9 13 5 7 1028.9 1029.0 0.0
30/02:00am 8.1 6.0 5.6 84 1.1 NNW 6 9 3 5 1028.8 1028.9 0.0
30/01:30am 8.2 5.4 5.3 82 1.3 NNW 9 13 5 7 1029.1 1029.2 0.0
30/01:00am 8.0 5.3 5.5 84 1.1 NNW 9 15 5 8 1029.3 1029.4 0.0
30/12:30am 8.2 5.1 5.5 83 1.2 NNW 11 17 6 9 1029.5 1029.6 0.0
30/12:00am 8.2 4.8 5.8 85 1.1 NNW 13 15 7 8 1029.7 1029.8 0.0
 
Date/Time
CST
Temp
°C
App
Temp
°C
Dew
Point
Rel
Hum
%
Delta-T
°C
Wind Press
QNH
hPa
Press
MSL
hPa
Rain
since 9 am
mm
Dir
 
Spd
km/h
Gust
km/h
Spd
kts
Gust
kts
29/11:30pm 8.4 4.9 5.5 82 1.3 NNW 13 17 7 9 1029.9 1030.0 0.0
29/11:00pm 8.5 5.8 5.8 83 1.2 NW 9 11 5 6 1030.0 1030.1 0.0
29/10:30pm 8.5 5.1 6.1 85 1.1 N 13 17 7 9 1029.9 1030.0 0.0
29/10:00pm 8.7 6.1 6.1 84 1.2 NW 9 11 5 6 1030.2 1030.3 0.0
29/09:30pm 8.9 6.0 6.3 84 1.2 NNW 11 13 6 7 1030.4 1030.5 0.0
29/09:00pm 9.1 6.2 6.3 83 1.3 N 11 15 6 8 1030.5 1030.6 0.0
29/08:30pm 9.2 6.3 6.6 84 1.2 N 11 15 6 8 1030.7 1030.8 0.0
29/08:00pm 9.2 6.8 6.8 85 1.1 N 9 13 5 7 1030.7 1030.8 0.0
29/07:30pm 9.3 6.8 6.5 83 1.3 N 9 13 5 7 1030.6 1030.7 0.0
29/07:00pm 9.8 7.5 7.3 84 1.2 N 9 13 5 7 1030.6 1030.7 0.0
29/06:30pm 10.1 7.7 7.1 81 1.4 N 9 11 5 6 1030.5 1030.6 0.0
29/06:00pm 10.2 7.5 7.2 82 1.4 NNE 11 11 6 6 1030.4 1030.5 0.0

Other Formats:

Comma delimited format used in spreadsheet applications
http://www.bom.gov.au/fwo/IDS60801/IDS60801.94821.axf

JavaScript Object Notation format (JSON) in row-major order
http://www.bom.gov.au/fwo/IDS60801/IDS60801.94821.json